createdAt,value
2023-03-29T00:02:11.476Z,-1.83
2023-03-29T00:04:44.413Z,-1.82
2023-03-29T00:07:17.133Z,-1.84
2023-03-29T00:09:50.377Z,-1.83
2023-03-29T00:12:22.901Z,-1.87
2023-03-29T00:14:56.421Z,-1.94
2023-03-29T00:17:29.343Z,-1.96
2023-03-29T00:20:02.317Z,-2.02
2023-03-29T00:22:38.160Z,-2.04
2023-03-29T00:25:13.120Z,-2.08
2023-03-29T00:28:04.461Z,-2.13
2023-03-29T00:30:40.967Z,-2.10
2023-03-29T00:33:14.053Z,-2.20
2023-03-29T00:35:54.929Z,-2.18
2023-03-29T00:38:29.143Z,-2.21
2023-03-29T00:41:02.570Z,-2.20
2023-03-29T00:43:49.001Z,-2.20
2023-03-29T00:46:21.923Z,-2.23
2023-03-29T00:48:58.205Z,-2.24
2023-03-29T00:51:35.092Z,-2.25
2023-03-29T00:54:15.180Z,-2.26
2023-03-29T00:56:53.013Z,-2.29
2023-03-29T00:59:30.232Z,-2.37
2023-03-29T01:02:05.851Z,-2.42
2023-03-29T01:04:43.098Z,-2.55
2023-03-29T01:07:22.460Z,-2.64
2023-03-29T01:10:01.807Z,-2.68
2023-03-29T01:12:44.114Z,-2.81
2023-03-29T01:15:21.598Z,-2.83
2023-03-29T01:18:02.312Z,-2.82
2023-03-29T01:20:49.487Z,-2.81
2023-03-29T01:23:34.703Z,-2.90
2023-03-29T01:26:16.799Z,-2.98
2023-03-29T01:28:54.992Z,-2.97
2023-03-29T01:31:31.476Z,-2.94
2023-03-29T01:34:07.783Z,-2.95
2023-03-29T01:36:46.957Z,-2.91
2023-03-29T01:39:20.992Z,-2.89
2023-03-29T01:42:05.067Z,-2.88
2023-03-29T01:44:45.255Z,-2.87
2023-03-29T01:47:28.289Z,-2.90
2023-03-29T01:50:09.044Z,-2.97
2023-03-29T01:52:47.397Z,-2.98
2023-03-29T01:55:24.392Z,-3.00
2023-03-29T01:58:00.160Z,-3.04
2023-03-29T02:00:35.276Z,-3.10
2023-03-29T02:03:11.992Z,-3.13
2023-03-29T02:05:45.984Z,-3.16
2023-03-29T02:08:20.441Z,-3.23
2023-03-29T02:10:54.277Z,-3.30
2023-03-29T02:13:24.985Z,-3.36
2023-03-29T02:16:03.491Z,-3.46
2023-03-29T02:18:40.614Z,-3.51
2023-03-29T02:21:23.094Z,-3.54
2023-03-29T02:24:01.238Z,-3.56
2023-03-29T02:26:34.743Z,-3.57
2023-03-29T02:29:07.760Z,-3.60
2023-03-29T02:31:46.274Z,-3.65
2023-03-29T02:34:27.703Z,-3.66
2023-03-29T02:37:04.192Z,-3.72
2023-03-29T02:39:38.878Z,-3.78
2023-03-29T02:42:15.094Z,-3.83
2023-03-29T02:44:51.753Z,-3.89
2023-03-29T02:47:28.629Z,-3.92
2023-03-29T02:50:01.844Z,-3.88
2023-03-29T02:52:39.667Z,-3.92
2023-03-29T02:55:18.706Z,-3.94
2023-03-29T02:57:51.392Z,-3.99
2023-03-29T03:00:24.718Z,-4.00
2023-03-29T03:03:01.995Z,-4.03
2023-03-29T03:05:35.154Z,-4.01
2023-03-29T03:08:08.940Z,-4.02
2023-03-29T03:10:39.772Z,-4.03
2023-03-29T03:13:12.957Z,-4.12
2023-03-29T03:15:49.494Z,-4.17
2023-03-29T03:18:23.766Z,-4.29
2023-03-29T03:21:03.444Z,-4.34
2023-03-29T03:23:36.106Z,-4.31
2023-03-29T03:26:09.457Z,-4.28
2023-03-29T03:28:42.507Z,-4.28
2023-03-29T03:31:21.985Z,-4.30
2023-03-29T03:34:19.851Z,-4.33
2023-03-29T03:37:02.194Z,-4.38
2023-03-29T03:39:37.096Z,-4.38
2023-03-29T03:42:10.993Z,-4.39
2023-03-29T03:44:48.212Z,-4.46
2023-03-29T03:47:41.792Z,-4.47
2023-03-29T03:50:36.475Z,-4.51
2023-03-29T03:53:09.709Z,-4.56
2023-03-29T03:56:09.257Z,-4.63
2023-03-29T03:58:54.686Z,-4.67
2023-03-29T04:01:28.099Z,-4.68
2023-03-29T04:04:08.786Z,-4.69
2023-03-29T04:06:43.554Z,-4.70
2023-03-29T04:09:35.230Z,-4.79
2023-03-29T04:12:27.461Z,-4.81
2023-03-29T04:15:00.546Z,-4.92
2023-03-29T04:17:33.699Z,-4.89
2023-03-29T04:20:21.641Z,-4.88
2023-03-29T04:22:57.971Z,-4.87
2023-03-29T04:25:33.790Z,-4.91
2023-03-29T04:28:41.705Z,-4.91
2023-03-29T04:31:34.559Z,-4.95
2023-03-29T04:34:20.715Z,-5.00
2023-03-29T04:36:59.041Z,-5.02
2023-03-29T04:39:34.485Z,-5.03
2023-03-29T04:42:12.026Z,-5.04
2023-03-29T04:44:44.997Z,-5.00
2023-03-29T04:47:20.656Z,-5.00
2023-03-29T04:50:03.707Z,-4.99
2023-03-29T04:52:43.337Z,-4.94
2023-03-29T04:55:16.238Z,-4.87
2023-03-29T04:57:58.031Z,-4.83
2023-03-29T05:00:41.104Z,-4.76
2023-03-29T05:03:30.528Z,-4.74
2023-03-29T05:06:13.101Z,-4.70
2023-03-29T05:08:47.030Z,-4.62
2023-03-29T05:11:26.997Z,-4.49
2023-03-29T05:14:03.026Z,-4.38
2023-03-29T05:16:38.508Z,-4.29
2023-03-29T05:19:12.076Z,-4.18
2023-03-29T05:21:50.279Z,-4.01
2023-03-29T05:24:26.858Z,-3.77
2023-03-29T05:27:03.964Z,-3.62
2023-03-29T05:29:38.835Z,-3.47
2023-03-29T05:32:22.943Z,-3.27
2023-03-29T05:34:56.546Z,-3.11
2023-03-29T05:37:29.046Z,-2.93
2023-03-29T05:40:10.498Z,-2.80
2023-03-29T05:43:19.073Z,-2.61
2023-03-29T05:45:54.130Z,-2.44
2023-03-29T05:48:27.507Z,-2.26
2023-03-29T05:50:59.509Z,-2.10
2023-03-29T05:53:32.042Z,-1.99
2023-03-29T05:56:05.274Z,-1.77
2023-03-29T05:58:38.543Z,-1.63
2023-03-29T06:01:15.361Z,-1.38
2023-03-29T06:04:08.358Z,-1.12
2023-03-29T06:06:56.315Z,-0.91
2023-03-29T06:09:29.169Z,-0.80
2023-03-29T06:12:11.748Z,-0.74
2023-03-29T06:15:05.134Z,-0.57
2023-03-29T06:17:47.530Z,-0.43
2023-03-29T06:20:23.236Z,-0.28
2023-03-29T06:23:00.353Z,-0.13
2023-03-29T06:25:34.589Z,-0.04
2023-03-29T06:28:10.043Z,0.10
2023-03-29T06:30:46.532Z,0.22
2023-03-29T06:33:20.996Z,0.29
2023-03-29T06:35:59.263Z,0.35
2023-03-29T06:38:34.645Z,0.52
2023-03-29T06:41:25.547Z,0.69
2023-03-29T06:44:18.739Z,0.78
2023-03-29T06:47:01.941Z,0.70
2023-03-29T06:49:36.129Z,0.90
2023-03-29T06:52:19.904Z,0.86
2023-03-29T06:54:52.868Z,0.96
2023-03-29T06:57:26.081Z,1.21
2023-03-29T06:59:58.968Z,1.30
2023-03-29T07:02:52.768Z,1.42
2023-03-29T07:05:27.504Z,1.49
2023-03-29T07:08:11.441Z,1.75
2023-03-29T07:10:54.521Z,1.88
2023-03-29T07:13:46.717Z,2.00
2023-03-29T07:16:21.551Z,2.12
2023-03-29T07:18:59.105Z,2.17
2023-03-29T07:21:50.225Z,2.38
2023-03-29T07:24:23.729Z,2.44
2023-03-29T07:27:04.086Z,2.40
2023-03-29T07:29:39.986Z,2.43
2023-03-29T07:32:13.079Z,2.47
2023-03-29T07:34:49.596Z,2.63
2023-03-29T07:37:38.583Z,2.81
2023-03-29T07:40:18.076Z,2.83
2023-03-29T07:43:15.013Z,3.00
2023-03-29T07:45:47.923Z,3.05
2023-03-29T07:48:20.804Z,3.18
2023-03-29T07:50:59.121Z,3.29
2023-03-29T07:53:37.492Z,3.47
2023-03-29T07:56:12.018Z,3.48
2023-03-29T07:58:52.675Z,3.63
2023-03-29T08:01:26.049Z,3.66
2023-03-29T08:04:15.523Z,3.76
2023-03-29T08:07:06.769Z,3.84
2023-03-29T08:10:00.631Z,3.87
2023-03-29T08:12:54.477Z,3.99
2023-03-29T08:15:34.020Z,4.01
2023-03-29T08:18:09.815Z,4.31
2023-03-29T08:20:42.915Z,4.49
2023-03-29T08:23:15.635Z,4.28
2023-03-29T08:26:09.057Z,4.66
2023-03-29T08:28:42.966Z,4.75
2023-03-29T08:31:16.657Z,4.71
2023-03-29T08:33:50.858Z,4.67
2023-03-29T08:36:43.189Z,4.75
2023-03-29T08:39:23.958Z,5.06
2023-03-29T08:42:27.037Z,5.22
2023-03-29T08:45:10.249Z,5.42
2023-03-29T08:47:52.602Z,5.55
2023-03-29T08:50:38.413Z,5.72
2023-03-29T08:53:14.833Z,5.84
2023-03-29T08:56:10.509Z,5.78
2023-03-29T08:59:04.201Z,5.81
2023-03-29T09:01:39.560Z,6.10
2023-03-29T09:04:16.086Z,6.10
2023-03-29T09:07:10.314Z,6.05
2023-03-29T09:09:48.383Z,6.08
2023-03-29T09:12:44.614Z,6.12
2023-03-29T09:15:24.041Z,6.22
2023-03-29T09:18:29.990Z,6.37
2023-03-29T09:21:13.063Z,6.23
2023-03-29T09:24:09.328Z,6.36
2023-03-29T09:26:58.783Z,6.21
2023-03-29T09:29:59.793Z,6.33
2023-03-29T09:32:54.096Z,6.54
2023-03-29T09:35:37.539Z,6.60
2023-03-29T09:38:14.414Z,6.57
2023-03-29T09:40:53.742Z,6.63
2023-03-29T09:43:35.087Z,6.88
2023-03-29T09:46:16.450Z,6.91
2023-03-29T09:48:52.001Z,6.78
2023-03-29T09:51:28.825Z,6.70
2023-03-29T09:54:02.465Z,6.87
2023-03-29T09:57:07.466Z,6.99
2023-03-29T09:59:41.403Z,7.07
2023-03-29T10:02:15.914Z,7.10
2023-03-29T10:04:55.596Z,7.12
2023-03-29T10:07:42.133Z,7.16
2023-03-29T10:10:24.344Z,7.43
2023-03-29T10:13:02.366Z,7.55
2023-03-29T10:15:35.333Z,7.71
2023-03-29T10:18:14.285Z,7.59
2023-03-29T10:20:47.874Z,7.67
2023-03-29T10:23:20.486Z,7.63
2023-03-29T10:25:53.703Z,7.61
2023-03-29T10:28:29.917Z,7.67
2023-03-29T10:31:08.508Z,7.59
2023-03-29T10:33:42.224Z,7.79
2023-03-29T10:36:16.098Z,7.70
2023-03-29T10:38:49.446Z,7.51
2023-03-29T10:41:22.216Z,7.59
2023-03-29T10:43:55.877Z,7.56
2023-03-29T10:46:32.829Z,7.81
2023-03-29T10:49:10.827Z,7.77
2023-03-29T10:51:49.731Z,7.89
2023-03-29T10:54:26.124Z,8.05
2023-03-29T10:57:05.372Z,8.22
2023-03-29T10:59:47.185Z,8.25
2023-03-29T11:02:46.286Z,8.26
2023-03-29T11:05:27.159Z,8.21
2023-03-29T11:08:29.763Z,8.29
2023-03-29T11:11:16.846Z,8.20
2023-03-29T11:14:00.108Z,8.30
2023-03-29T11:16:41.683Z,8.35
2023-03-29T11:19:44.202Z,8.59
2023-03-29T11:22:26.204Z,8.76
2023-03-29T11:25:11.925Z,8.70
2023-03-29T11:27:52.150Z,8.59
2023-03-29T11:30:32.812Z,8.62
2023-03-29T11:33:18.827Z,8.51
2023-03-29T11:36:02.423Z,8.76
2023-03-29T11:38:38.693Z,8.68
2023-03-29T11:41:18.053Z,8.81
2023-03-29T11:43:55.465Z,8.86
2023-03-29T11:46:32.954Z,8.86
2023-03-29T11:49:12.485Z,8.90
2023-03-29T11:51:51.413Z,8.93
2023-03-29T11:54:30.223Z,8.94
2023-03-29T11:57:07.948Z,9.04
2023-03-29T11:59:46.212Z,9.15
2023-03-29T12:02:29.492Z,9.25
2023-03-29T12:05:12.623Z,9.28
2023-03-29T12:07:50.412Z,9.36
2023-03-29T12:10:25.527Z,9.32
2023-03-29T12:13:03.334Z,9.40
2023-03-29T12:15:40.064Z,9.21
2023-03-29T12:18:22.495Z,9.09
2023-03-29T12:20:59.138Z,9.00
2023-03-29T12:23:34.086Z,9.03
2023-03-29T12:26:18.932Z,9.06
2023-03-29T12:29:24.342Z,9.19
2023-03-29T12:32:06.201Z,9.20
2023-03-29T12:35:00.939Z,9.24
2023-03-29T12:38:04.220Z,9.34
2023-03-29T12:41:02.497Z,9.41
2023-03-29T12:43:54.671Z,9.42
2023-03-29T12:46:38.120Z,9.32
2023-03-29T12:49:18.635Z,9.44
2023-03-29T12:51:53.507Z,9.17
2023-03-29T12:54:28.075Z,9.30
2023-03-29T12:57:04.300Z,9.32
2023-03-29T12:59:45.246Z,9.38
2023-03-29T13:02:39.199Z,9.31
2023-03-29T13:05:23.358Z,9.09
2023-03-29T13:07:56.788Z,9.23
2023-03-29T13:10:43.184Z,9.34
2023-03-29T13:13:21.026Z,9.40
2023-03-29T13:15:55.684Z,9.57
2023-03-29T13:18:43.935Z,9.70
2023-03-29T13:21:25.978Z,9.79
2023-03-29T13:24:30.086Z,9.70
2023-03-29T13:27:13.856Z,9.67
2023-03-29T13:30:09.720Z,9.75
2023-03-29T13:32:50.988Z,9.74
2023-03-29T13:35:41.889Z,9.70
2023-03-29T13:38:22.936Z,9.66
2023-03-29T13:41:12.010Z,9.65
2023-03-29T13:43:57.140Z,9.69
2023-03-29T13:46:41.408Z,9.72
2023-03-29T13:49:21.416Z,9.74
2023-03-29T13:52:09.515Z,9.77
2023-03-29T13:54:52.283Z,9.85
2023-03-29T13:57:33.423Z,9.76
2023-03-29T14:00:17.521Z,9.84
2023-03-29T14:02:53.789Z,9.84
2023-03-29T14:05:32.757Z,9.91
2023-03-29T14:08:12.038Z,9.96
2023-03-29T14:10:46.492Z,9.96
2023-03-29T14:13:23.014Z,9.81
2023-03-29T14:15:59.014Z,9.90
2023-03-29T14:18:34.753Z,9.95
2023-03-29T14:21:08.583Z,10.01
2023-03-29T14:23:45.477Z,9.96
2023-03-29T14:26:21.686Z,10.08
2023-03-29T14:29:01.709Z,10.10
2023-03-29T14:31:36.685Z,10.04
2023-03-29T14:34:14.035Z,10.11
2023-03-29T14:36:49.302Z,10.11
2023-03-29T14:39:24.705Z,10.10
2023-03-29T14:41:58.602Z,10.17
2023-03-29T14:44:33.583Z,10.15
2023-03-29T14:47:07.476Z,10.14
2023-03-29T14:49:40.674Z,10.20
2023-03-29T14:52:15.677Z,10.10
2023-03-29T14:54:52.521Z,10.15
2023-03-29T14:57:29.207Z,10.22
2023-03-29T15:00:16.838Z,10.30
2023-03-29T15:02:55.734Z,10.19
2023-03-29T15:05:36.276Z,10.27
2023-03-29T15:08:15.814Z,10.20
2023-03-29T15:10:48.976Z,10.12
2023-03-29T15:13:25.731Z,10.07
2023-03-29T15:16:03.841Z,9.94
2023-03-29T15:18:40.621Z,9.97
2023-03-29T15:21:17.666Z,9.99
2023-03-29T15:23:56.654Z,9.93
2023-03-29T15:26:33.346Z,9.87
2023-03-29T15:29:15.024Z,9.75
2023-03-29T15:31:59.431Z,9.69
2023-03-29T15:34:33.808Z,9.52
2023-03-29T15:37:08.440Z,9.37
2023-03-29T15:39:45.229Z,9.28
2023-03-29T15:42:17.908Z,9.17
2023-03-29T15:44:50.900Z,9.07
2023-03-29T15:47:24.608Z,9.00
2023-03-29T15:49:58.736Z,8.90
2023-03-29T15:52:32.185Z,8.83
2023-03-29T15:55:05.321Z,8.76
2023-03-29T15:57:42.914Z,8.65
2023-03-29T16:00:26.888Z,8.54
2023-03-29T16:03:07.444Z,8.46
2023-03-29T16:05:51.264Z,8.41
2023-03-29T16:08:37.058Z,8.35
2023-03-29T16:11:17.874Z,8.31
2023-03-29T16:14:00.903Z,8.27
2023-03-29T16:16:41.976Z,8.22
2023-03-29T16:19:20.721Z,8.20
2023-03-29T16:21:58.128Z,8.19
2023-03-29T16:24:34.122Z,8.18
2023-03-29T16:27:07.369Z,8.19
2023-03-29T16:29:40.114Z,8.14
2023-03-29T16:32:13.478Z,8.13
2023-03-29T16:34:46.856Z,8.05
2023-03-29T16:37:19.623Z,8.02
2023-03-29T16:39:52.483Z,8.03
2023-03-29T16:42:28.360Z,7.98
2023-03-29T16:45:06.355Z,7.93
2023-03-29T16:47:47.370Z,7.88
2023-03-29T16:50:25.045Z,7.81
2023-03-29T16:53:09.201Z,7.76
2023-03-29T16:55:45.217Z,7.73
2023-03-29T16:58:18.294Z,7.62
2023-03-29T17:00:52.406Z,7.52
2023-03-29T17:03:25.130Z,7.46
2023-03-29T17:05:58.840Z,7.29
2023-03-29T17:08:31.829Z,7.27
2023-03-29T17:11:05.402Z,7.17
2023-03-29T17:13:38.312Z,6.97
2023-03-29T17:16:11.894Z,6.80
2023-03-29T17:18:42.699Z,6.76
2023-03-29T17:21:16.664Z,6.60
2023-03-29T17:23:49.410Z,6.50
2023-03-29T17:26:22.350Z,6.43
2023-03-29T17:28:55.093Z,6.31
2023-03-29T17:31:28.302Z,6.22
2023-03-29T17:34:01.251Z,6.05
2023-03-29T17:36:34.207Z,5.95
2023-03-29T17:39:10.713Z,5.81
2023-03-29T17:41:44.150Z,5.75
2023-03-29T17:44:17.014Z,5.72
2023-03-29T17:46:49.805Z,5.56
2023-03-29T17:49:23.040Z,5.52
2023-03-29T17:51:57.460Z,5.47
2023-03-29T17:54:30.442Z,5.36
2023-03-29T17:57:03.158Z,5.24
2023-03-29T17:59:37.223Z,5.20
2023-03-29T18:02:09.986Z,5.15
2023-03-29T18:04:43.202Z,5.06
2023-03-29T18:07:16.475Z,5.03
2023-03-29T18:09:49.242Z,4.98
2023-03-29T18:12:22.382Z,4.93
2023-03-29T18:14:57.237Z,4.86
2023-03-29T18:17:32.040Z,4.74
2023-03-29T18:20:10.142Z,4.62
2023-03-29T18:22:46.164Z,4.58
2023-03-29T18:25:20.483Z,4.50
2023-03-29T18:27:53.044Z,4.51
2023-03-29T18:30:26.742Z,4.42
2023-03-29T18:32:57.650Z,4.37
2023-03-29T18:35:30.709Z,4.14
2023-03-29T18:38:03.876Z,4.07
2023-03-29T18:40:37.040Z,4.11
2023-03-29T18:43:09.618Z,4.13
2023-03-29T18:45:42.955Z,4.11
2023-03-29T18:48:16.006Z,4.05
2023-03-29T18:50:48.646Z,3.95
2023-03-29T18:53:22.067Z,3.93
2023-03-29T18:55:55.036Z,3.90
2023-03-29T18:58:28.396Z,3.88
2023-03-29T19:01:05.965Z,3.77
2023-03-29T19:03:38.966Z,3.64
2023-03-29T19:06:12.338Z,3.64
2023-03-29T19:08:45.114Z,3.64
2023-03-29T19:11:17.801Z,3.62
2023-03-29T19:13:52.648Z,3.59
2023-03-29T19:16:26.301Z,3.65
2023-03-29T19:19:01.953Z,3.62
2023-03-29T19:21:34.863Z,3.58
2023-03-29T19:24:08.499Z,3.57
2023-03-29T19:26:41.516Z,3.57
2023-03-29T19:29:15.449Z,3.51
2023-03-29T19:31:48.249Z,3.47
2023-03-29T19:34:23.363Z,3.49
2023-03-29T19:36:59.023Z,3.36
2023-03-29T19:39:31.846Z,3.24
2023-03-29T19:42:04.526Z,3.16
2023-03-29T19:44:38.721Z,3.14
2023-03-29T19:47:11.623Z,3.14
2023-03-29T19:49:46.548Z,3.17
2023-03-29T19:52:21.245Z,3.22
2023-03-29T19:54:54.041Z,3.25
2023-03-29T19:57:27.271Z,3.26
2023-03-29T19:59:59.980Z,3.23
2023-03-29T20:02:32.805Z,3.23
2023-03-29T20:05:06.412Z,3.12
2023-03-29T20:07:37.209Z,3.09
2023-03-29T20:10:11.509Z,3.01
2023-03-29T20:12:44.101Z,3.04
2023-03-29T20:15:17.348Z,3.04
2023-03-29T20:17:52.400Z,3.02
2023-03-29T20:20:25.722Z,2.90
2023-03-29T20:23:05.211Z,2.85
2023-03-29T20:25:38.414Z,2.83
2023-03-29T20:28:15.233Z,2.83
2023-03-29T20:30:51.662Z,2.81
2023-03-29T20:33:25.046Z,2.82
2023-03-29T20:35:58.039Z,2.83
2023-03-29T20:38:30.882Z,2.84
2023-03-29T20:41:04.565Z,2.90
2023-03-29T20:43:39.069Z,2.92
2023-03-29T20:46:18.681Z,2.94
2023-03-29T20:48:54.925Z,2.97
2023-03-29T20:51:30.783Z,2.98
2023-03-29T20:54:05.404Z,3.02
2023-03-29T20:56:40.279Z,3.01
2023-03-29T20:59:17.245Z,3.07
2023-03-29T21:01:50.636Z,3.13
2023-03-29T21:04:23.935Z,3.14
2023-03-29T21:06:57.475Z,3.14
2023-03-29T21:09:28.314Z,3.17
2023-03-29T21:12:01.780Z,3.18
2023-03-29T21:14:34.944Z,3.30
2023-03-29T21:17:09.612Z,3.33
2023-03-29T21:19:43.319Z,3.30
2023-03-29T21:22:15.009Z,3.24
2023-03-29T21:24:47.994Z,3.20
2023-03-29T21:27:20.845Z,3.23
2023-03-29T21:29:54.102Z,3.26
2023-03-29T21:32:26.953Z,3.23
2023-03-29T21:34:59.981Z,3.22
2023-03-29T21:37:32.788Z,3.19
2023-03-29T21:40:07.533Z,3.18
2023-03-29T21:42:40.194Z,3.12
2023-03-29T21:45:14.485Z,3.11
2023-03-29T21:47:47.030Z,3.04
2023-03-29T21:50:20.067Z,3.06
2023-03-29T21:52:52.762Z,3.03
2023-03-29T21:55:25.483Z,2.93
2023-03-29T21:57:58.212Z,2.94
2023-03-29T22:00:31.673Z,2.98
2023-03-29T22:03:04.244Z,2.92
2023-03-29T22:05:37.322Z,2.90
2023-03-29T22:08:11.406Z,2.82
2023-03-29T22:10:44.186Z,2.86
2023-03-29T22:13:17.086Z,2.81
2023-03-29T22:15:50.354Z,2.79
2023-03-29T22:18:22.940Z,2.81
2023-03-29T22:20:56.786Z,2.74
2023-03-29T22:23:29.695Z,2.78
2023-03-29T22:26:05.806Z,2.76
2023-03-29T22:28:38.743Z,2.76
2023-03-29T22:31:12.928Z,2.76
2023-03-29T22:33:45.536Z,2.73
2023-03-29T22:36:20.418Z,2.74
2023-03-29T22:38:54.137Z,2.68
2023-03-29T22:41:25.584Z,2.69
2023-03-29T22:44:01.296Z,2.63
2023-03-29T22:46:34.102Z,2.66
2023-03-29T22:49:07.484Z,2.62
2023-03-29T22:51:40.354Z,2.62
2023-03-29T22:54:12.976Z,2.67
2023-03-29T22:56:45.737Z,2.67
2023-03-29T22:59:18.542Z,2.67
2023-03-29T23:01:52.849Z,2.64
2023-03-29T23:04:25.617Z,2.64
2023-03-29T23:06:59.453Z,2.61
2023-03-29T23:09:33.528Z,2.58
2023-03-29T23:12:06.298Z,2.52
2023-03-29T23:14:43.123Z,2.48
2023-03-29T23:17:19.777Z,2.49
2023-03-29T23:19:53.307Z,2.48
2023-03-29T23:22:26.862Z,2.52
2023-03-29T23:24:59.773Z,2.49
2023-03-29T23:27:33.671Z,2.52
2023-03-29T23:30:07.956Z,2.47
2023-03-29T23:32:40.741Z,2.51
2023-03-29T23:35:14.142Z,2.47
2023-03-29T23:37:47.554Z,2.45
2023-03-29T23:40:20.420Z,2.42
2023-03-29T23:42:53.541Z,2.42
2023-03-29T23:45:28.117Z,2.40
2023-03-29T23:48:01.574Z,2.39
2023-03-29T23:50:34.403Z,2.40
2023-03-29T23:53:07.580Z,2.38
2023-03-29T23:55:40.272Z,2.36
2023-03-29T23:58:13.395Z,2.26
